Time;durP1;ratioP1;P1;durP2;ratioP2;P2;SDS_P1;SDS_P2;PMS_P1;PMS_P2;Temp;Humidity;BMP_temperature;BMP_pressure;BME280_temperature;BME280_humidity;BME280_pressure;Samples;Min_cycle;Max_cycle;Signal;HPM_P1;HPM_P2
2023/12/07 00:01:03;;;;;;;16.42;10.20;;;;;;;0.46;100.00;98567.06;6088269;19;20002;-72
2023/12/07 00:03:06;;;;;;;18.83;9.82;;;;;;;0.46;100.00;98567.06;6087264;19;20238;-72
2023/12/07 00:05:08;;;;;;;16.88;9.63;;;;;;;0.43;100.00;98564.16;6087846;19;19995;-72
2023/12/07 00:07:08;;;;;;;16.75;9.98;;;;;;;0.46;100.00;98567.06;6088808;19;20479;-72
2023/12/07 00:09:08;;;;;;;18.38;9.73;;;;;;;0.47;100.00;98565.13;6087332;19;20002;-72
2023/12/07 00:11:09;;;;;;;18.33;10.65;;;;;;;0.51;100.00;98557.97;6086721;19;20361;-72
2023/12/07 00:13:09;;;;;;;15.80;10.15;;;;;;;0.48;100.00;98564.03;6086092;19;20409;-72
2023/12/07 00:15:09;;;;;;;18.13;10.00;;;;;;;0.52;100.00;98574.00;6086180;19;20588;-72
2023/12/07 00:17:10;;;;;;;16.05;10.40;;;;;;;0.53;100.00;98570.16;6086284;19;20007;-72
2023/12/07 00:19:10;;;;;;;15.50;9.25;;;;;;;0.65;100.00;98571.50;6084637;19;20010;-72
2023/12/07 00:21:10;;;;;;;19.95;9.60;;;;;;;0.69;100.00;98572.50;6086534;19;20013;-72
2023/12/07 00:23:11;;;;;;;17.90;9.90;;;;;;;0.67;100.00;98575.53;6086153;19;20003;-72
2023/12/07 00:25:12;;;;;;;14.55;8.85;;;;;;;0.75;100.00;98574.00;6086036;19;20067;-72
2023/12/07 00:27:12;;;;;;;17.50;8.98;;;;;;;0.78;100.00;98573.34;6084263;19;20111;-72
2023/12/07 00:29:12;;;;;;;14.73;9.10;;;;;;;0.75;100.00;98588.41;6085344;19;20319;-72
2023/12/07 00:31:13;;;;;;;16.48;9.70;;;;;;;0.79;100.00;98575.75;6085018;19;20414;-72
2023/12/07 00:33:13;;;;;;;16.67;8.82;;;;;;;0.84;100.00;98581.09;6086460;19;20014;-72
2023/12/07 00:35:14;;;;;;;15.30;9.05;;;;;;;0.79;100.00;98588.59;6084994;19;20007;-72
2023/12/07 00:37:15;;;;;;;13.68;8.70;;;;;;;0.80;100.00;98593.72;6085899;19;20011;-72
2023/12/07 00:39:16;;;;;;;15.57;8.88;;;;;;;0.82;100.00;98593.41;6085456;19;20420;-72
2023/12/07 00:41:17;;;;;;;15.83;8.43;;;;;;;0.80;100.00;98592.91;6085354;19;20374;-71
2023/12/07 00:43:18;;;;;;;18.00;9.48;;;;;;;0.82;100.00;98587.94;6085854;19;20255;-71
2023/12/07 00:45:18;;;;;;;14.85;8.80;;;;;;;0.78;100.00;98585.06;6086034;19;20026;-72
2023/12/07 00:47:18;;;;;;;15.95;9.38;;;;;;;0.76;100.00;98589.22;6085595;19;20010;-72
2023/12/07 00:49:19;;;;;;;15.20;9.32;;;;;;;0.71;100.00;98576.50;6085570;19;20014;-72
2023/12/07 00:51:19;;;;;;;19.80;10.18;;;;;;;0.71;100.00;98602.94;6096219;19;20463;-72
2023/12/07 00:53:19;;;;;;;17.58;9.20;;;;;;;0.64;100.00;98591.69;6099751;19;20003;-72
2023/12/07 00:55:20;;;;;;;15.15;9.70;;;;;;;0.61;100.00;98604.00;6097157;19;20006;-72
2023/12/07 00:57:20;;;;;;;17.05;9.20;;;;;;;0.64;100.00;98606.09;6099093;19;20012;-72
2023/12/07 00:59:20;;;;;;;19.63;9.98;;;;;;;0.63;100.00;98598.25;6098569;19;20043;-72
2023/12/07 01:01:21;;;;;;;16.10;8.52;;;;;;;0.63;100.00;98611.84;6099393;19;20003;-72
2023/12/07 01:03:21;;;;;;;13.68;8.80;;;;;;;0.63;100.00;98618.09;6098114;19;19998;-72
2023/12/07 01:05:21;;;;;;;14.38;8.10;;;;;;;0.62;100.00;98621.94;6098624;19;20010;-72
2023/12/07 01:07:22;;;;;;;15.68;8.43;;;;;;;0.64;100.00;98627.88;6099439;19;20470;-72
2023/12/07 01:09:22;;;;;;;13.90;7.80;;;;;;;0.70;100.00;98631.28;6098290;19;20006;-72
2023/12/07 01:11:23;;;;;;;14.65;9.18;;;;;;;0.77;100.00;98631.66;6100088;19;20043;-71
2023/12/07 01:13:23;;;;;;;14.27;7.20;;;;;;;0.77;100.00;98640.66;6098622;19;20007;-71
2023/12/07 01:15:24;;;;;;;13.85;7.93;;;;;;;0.87;100.00;98641.50;6099342;19;20025;-71
2023/12/07 01:17:24;;;;;;;13.60;7.63;;;;;;;0.89;100.00;98636.53;6098877;19;20398;-71
2023/12/07 01:19:25;;;;;;;15.43;8.90;;;;;;;0.83;100.00;98638.63;6098297;19;20078;-72
2023/12/07 01:21:25;;;;;;;13.55;7.65;;;;;;;0.84;100.00;98638.28;6098429;19;20542;-71
2023/12/07 01:23:25;;;;;;;15.10;8.55;;;;;;;0.79;100.00;98635.69;6098902;19;20023;-71
2023/12/07 01:25:26;;;;;;;12.40;7.20;;;;;;;0.73;100.00;98639.63;6098767;19;20006;-71
2023/12/07 01:27:26;;;;;;;13.48;7.82;;;;;;;0.66;100.00;98639.25;6099030;19;20062;-71
2023/12/07 01:29:26;;;;;;;13.07;7.85;;;;;;;0.64;100.00;98636.06;6097238;19;20473;-71
2023/12/07 01:31:27;;;;;;;14.40;8.27;;;;;;;0.70;100.00;98640.28;6102748;19;20099;-71
2023/12/07 01:33:27;;;;;;;18.55;8.32;;;;;;;0.73;100.00;98649.72;6104121;19;20007;-71
2023/12/07 01:35:28;;;;;;;15.95;8.35;;;;;;;0.71;100.00;98647.31;6104005;19;20006;-71
2023/12/07 01:37:30;;;;;;;15.73;8.98;;;;;;;0.68;100.00;98653.41;6104516;19;20003;-71
2023/12/07 01:39:30;;;;;;;13.35;8.18;;;;;;;0.72;100.00;98651.66;6103712;19;20455;-71
2023/12/07 01:41:31;;;;;;;14.93;8.80;;;;;;;0.69;100.00;98657.72;6104154;19;20014;-71
2023/12/07 01:43:31;;;;;;;12.95;7.45;;;;;;;0.63;100.00;98658.16;6104446;19;20017;-71
2023/12/07 01:45:32;;;;;;;14.38;8.40;;;;;;;0.62;100.00;98673.69;6104271;19;20641;-71
2023/12/07 01:47:35;;;;;;;13.98;8.02;;;;;;;0.65;100.00;98666.81;6104281;19;20017;-71
2023/12/07 01:49:36;;;;;;;14.75;8.13;;;;;;;0.60;100.00;98665.03;6102124;19;20530;-71
2023/12/07 01:51:36;;;;;;;14.02;8.32;;;;;;;0.59;100.00;98668.88;6103557;19;20026;-71
2023/12/07 01:53:39;;;;;;;15.95;8.75;;;;;;;0.60;100.00;98664.22;6104765;19;20007;-71
2023/12/07 01:55:40;;;;;;;15.45;8.80;;;;;;;0.55;100.00;98668.66;6104098;19;20091;-71
2023/12/07 01:57:43;;;;;;;11.82;7.13;;;;;;;0.60;100.00;98675.13;6104103;19;20015;-71
2023/12/07 01:59:43;;;;;;;13.50;7.68;;;;;;;0.56;100.00;98680.34;6102961;19;20075;-71
2023/12/07 02:01:44;;;;;;;13.38;7.88;;;;;;;0.64;100.00;98670.66;6103035;19;20495;-71
2023/12/07 02:03:44;;;;;;;13.30;7.85;;;;;;;0.65;100.00;98673.06;6102517;19;20443;-71
2023/12/07 02:05:48;;;;;;;15.20;8.15;;;;;;;0.73;100.00;98671.53;6101585;19;20078;-71
2023/12/07 02:07:49;;;;;;;13.20;7.80;;;;;;;0.67;100.00;98675.50;6103889;19;20006;-71
2023/12/07 02:09:49;;;;;;;16.20;8.07;;;;;;;0.65;100.00;98683.16;6102914;19;20387;-72
2023/12/07 02:11:50;;;;;;;14.65;8.25;;;;;;;0.65;100.00;98681.22;6104303;19;20077;-72
2023/12/07 02:13:54;;;;;;;14.15;7.65;;;;;;;0.64;100.00;98682.34;6102713;19;20013;-71
2023/12/07 02:15:57;;;;;;;16.10;7.95;;;;;;;0.69;100.00;98678.72;6103404;19;20673;-71
2023/12/07 02:18:10;;;;;;;13.70;8.07;;;;;;;0.70;100.00;98683.03;6103525;19;20342;-71
2023/12/07 02:20:19;;;;;;;13.77;8.10;;;;;;;0.66;100.00;98682.84;6102218;19;20013;-71
2023/12/07 02:22:28;;;;;;;14.05;7.97;;;;;;;0.69;100.00;98676.78;6103364;19;20007;-71
2023/12/07 02:24:33;;;;;;;14.18;8.32;;;;;;;0.66;100.00;98679.31;6102694;19;20042;-71
2023/12/07 02:26:41;;;;;;;15.80;7.00;;;;;;;0.68;100.00;98688.00;6103879;19;20010;-71
2023/12/07 02:28:41;;;;;;;13.50;7.35;;;;;;;0.74;100.00;98686.75;6102611;19;20328;-71
2023/12/07 02:30:42;;;;;;;14.63;8.75;;;;;;;0.71;100.00;98687.38;6103390;19;20011;-71
2023/12/07 02:32:45;;;;;;;14.70;8.25;;;;;;;0.71;100.00;98692.81;6103149;19;20023;-71
2023/12/07 02:34:45;;;;;;;14.07;7.90;;;;;;;0.78;100.00;98701.38;6101800;19;20058;-71
2023/12/07 02:36:48;;;;;;;15.27;8.13;;;;;;;0.74;100.00;98686.75;6103687;19;20002;-71
2023/12/07 02:38:50;;;;;;;;;;;;;;;0.64;100.00;98700.59;6102899;19;20090;-71
2023/12/07 02:40:53;;;;;;;16.67;8.50;;;;;;;0.60;100.00;98699.63;6103876;19;20235;-71
2023/12/07 02:42:54;;;;;;;14.15;7.90;;;;;;;0.57;100.00;98693.66;6101742;19;20011;-71
2023/12/07 02:44:54;;;;;;;14.93;8.15;;;;;;;0.51;100.00;98694.09;6102884;19;20027;-71
2023/12/07 02:46:55;;;;;;;13.63;7.85;;;;;;;0.50;100.00;98698.75;6103131;19;20397;-71
2023/12/07 02:48:57;;;;;;;15.57;8.13;;;;;;;0.48;100.00;98687.31;6101458;19;20007;-71
2023/12/07 02:50:57;;;;;;;13.50;7.80;;;;;;;0.47;100.00;98690.38;6103321;19;20007;-71
2023/12/07 02:52:57;;;;;;;19.33;9.45;;;;;;;0.43;100.00;98686.66;6102631;19;20026;-72
2023/12/07 02:54:58;;;;;;;16.40;8.80;;;;;;;0.44;100.00;98685.53;6102714;19;20758;-72
2023/12/07 02:56:58;;;;;;;15.70;8.18;;;;;;;0.41;100.00;98689.66;6103342;19;20003;-72
2023/12/07 02:58:58;;;;;;;15.23;9.27;;;;;;;0.39;100.00;98685.63;6100968;19;20723;-72
2023/12/07 03:00:59;;;;;;;13.95;8.73;;;;;;;0.39;100.00;98702.78;6102537;19;20002;-72
2023/12/07 03:02:59;;;;;;;15.57;8.95;;;;;;;0.42;100.00;98704.91;6102841;19;20033;-72
2023/12/07 03:04:59;;;;;;;17.98;8.90;;;;;;;0.41;100.00;98708.72;6103247;19;20007;-72
2023/12/07 03:07:00;;;;;;;16.40;9.00;;;;;;;0.38;100.00;98703.91;6103316;19;20003;-72
2023/12/07 03:09:00;;;;;;;17.67;9.68;;;;;;;0.39;100.00;98705.50;6102717;19;20011;-72
2023/12/07 03:11:00;;;;;;;15.98;8.52;;;;;;;0.40;100.00;98704.38;6102905;19;20010;-72
2023/12/07 03:13:01;;;;;;;18.20;9.10;;;;;;;0.38;100.00;98708.53;6102800;19;20007;-72
2023/12/07 03:15:01;;;;;;;16.92;9.00;;;;;;;0.37;100.00;98713.16;6102706;19;20106;-72
2023/12/07 03:17:01;;;;;;;14.13;8.07;;;;;;;0.36;100.00;98708.03;6102972;19;20454;-72
2023/12/07 03:19:02;;;;;;;17.05;8.55;;;;;;;0.35;100.00;98712.69;6101985;19;20002;-72
2023/12/07 03:21:03;;;;;;;15.80;9.10;;;;;;;0.37;100.00;98709.66;6103610;19;20070;-72
2023/12/07 03:23:04;;;;;;;14.75;8.63;;;;;;;0.36;100.00;98708.03;6103085;19;20007;-72
2023/12/07 03:25:04;;;;;;;14.93;9.07;;;;;;;0.37;100.00;98709.66;6102567;19;20265;-72
2023/12/07 03:27:05;;;;;;;14.15;8.70;;;;;;;0.35;100.00;98711.88;6100745;19;20017;-72
2023/12/07 03:29:05;;;;;;;14.57;8.73;;;;;;;0.34;100.00;98705.63;6101058;19;20706;-72
2023/12/07 03:31:05;;;;;;;15.50;8.10;;;;;;;0.33;100.00;98708.63;6100757;19;20595;-72
2023/12/07 03:33:06;;;;;;;15.35;8.85;;;;;;;0.33;100.00;98712.16;6101127;19;20486;-72
2023/12/07 03:35:06;;;;;;;11.88;7.43;;;;;;;0.33;100.00;98716.78;6102024;19;20007;-72
2023/12/07 03:37:07;;;;;;;15.80;8.73;;;;;;;0.31;100.00;98710.84;6101294;19;20007;-71
2023/12/07 03:39:07;;;;;;;15.60;9.25;;;;;;;0.30;100.00;98717.41;6100460;19;20015;-71
2023/12/07 03:41:08;;;;;;;16.17;9.00;;;;;;;0.31;100.00;98719.03;6101686;19;20153;-72
2023/12/07 03:43:08;;;;;;;18.90;8.77;;;;;;;0.35;100.00;98720.84;6102306;19;20013;-72
2023/12/07 03:45:09;;;;;;;13.45;8.45;;;;;;;0.36;100.00;98721.66;6100516;19;20010;-72
2023/12/07 03:47:09;;;;;;;13.82;8.48;;;;;;;0.36;100.00;98724.38;6101873;19;20087;-72
2023/12/07 03:49:10;;;;;;;17.83;9.90;;;;;;;0.35;100.00;98720.03;6100461;19;20098;-72
2023/12/07 03:51:13;;;;;;;18.08;10.32;;;;;;;0.34;100.00;98724.69;6088918;19;20010;-72
2023/12/07 03:53:13;;;;;;;15.75;9.27;;;;;;;0.34;100.00;98729.31;6100466;19;20007;-72
2023/12/07 03:55:14;;;;;;;16.42;8.98;;;;;;;0.34;100.00;98724.69;6098077;19;20621;-72
2023/12/07 03:57:14;;;;;;;16.52;8.77;;;;;;;0.31;100.00;98725.28;6100618;19;20007;-72
2023/12/07 03:59:15;;;;;;;15.50;8.85;;;;;;;0.32;100.00;98731.53;6098929;19;20078;-72
2023/12/07 04:01:15;;;;;;;17.38;9.70;;;;;;;0.30;100.00;98734.56;6097142;19;20006;-72
2023/12/07 04:03:15;;;;;;;13.57;8.63;;;;;;;0.32;100.00;98734.25;6101364;19;20610;-72
2023/12/07 04:05:16;;;;;;;16.33;9.43;;;;;;;0.30;100.00;98736.47;6099799;19;20006;-72
2023/12/07 04:07:16;;;;;;;16.17;9.23;;;;;;;0.31;100.00;98738.06;6101118;19;20101;-72
2023/12/07 04:09:16;;;;;;;16.92;8.85;;;;;;;0.29;100.00;98741.09;6095886;19;20018;-72
2023/12/07 04:11:17;;;;;;;16.80;9.50;;;;;;;0.30;100.00;98739.19;6100254;19;20475;-72
2023/12/07 04:13:18;;;;;;;17.70;9.48;;;;;;;0.32;100.00;98739.69;6099425;19;20451;-72
2023/12/07 04:15:19;;;;;;;16.50;8.45;;;;;;;0.33;100.00;98744.00;6100118;19;20340;-72
2023/12/07 04:17:21;;;;;;;13.23;8.65;;;;;;;0.31;100.00;98738.06;6100410;19;20002;-72
2023/12/07 04:19:21;;;;;;;16.00;8.77;;;;;;;0.33;100.00;98750.25;6096752;19;20502;-72
2023/12/07 04:21:22;;;;;;;15.52;8.10;;;;;;;0.30;100.00;98739.19;6099320;19;20034;-72
2023/12/07 04:23:22;;;;;;;18.92;9.35;;;;;;;0.30;100.00;98740.00;6098197;19;20519;-72
2023/12/07 04:25:22;;;;;;;15.32;9.38;;;;;;;0.28;100.00;98737.59;6098401;19;20459;-72
2023/12/07 04:27:23;;;;;;;15.15;8.35;;;;;;;0.31;100.00;98747.03;6100041;19;20249;-72
2023/12/07 04:29:23;;;;;;;15.48;8.75;;;;;;;0.29;100.00;98741.09;6096894;19;20025;-72
2023/12/07 04:31:23;;;;;;;15.00;8.27;;;;;;;0.31;100.00;98748.97;6099286;19;20018;-72
2023/12/07 04:33:24;;;;;;;14.82;8.73;;;;;;;0.28;100.00;98744.94;6097654;19;20033;-72
2023/12/07 04:35:24;;;;;;;14.95;8.27;;;;;;;0.29;100.00;98741.09;6092915;19;20017;-72
2023/12/07 04:37:24;;;;;;;14.82;8.25;;;;;;;0.32;100.00;98742.41;6093718;19;20651;-72
2023/12/07 04:39:25;;;;;;;15.90;9.60;;;;;;;0.31;100.00;98749.78;6090828;19;19998;-72
2023/12/07 04:41:25;;;;;;;14.93;8.73;;;;;;;0.29;100.00;98749.28;6099057;19;20002;-72
2023/12/07 04:43:25;;;;;;;17.45;9.15;;;;;;;0.29;100.00;98752.00;6099334;19;20019;-72
2023/12/07 04:45:26;;;;;;;14.48;8.90;;;;;;;0.29;100.00;98752.00;6099185;19;20006;-72
2023/12/07 04:47:26;;;;;;;17.13;9.25;;;;;;;0.30;100.00;98750.88;6098503;19;20321;-72
2023/12/07 04:49:26;;;;;;;14.70;8.55;;;;;;;0.30;100.00;98756.31;6097486;19;20324;-72
2023/12/07 04:51:27;;;;;;;13.50;7.78;;;;;;;0.29;100.00;98757.44;6083644;19;20006;-72
2023/12/07 04:53:27;;;;;;;17.95;9.90;;;;;;;0.27;100.00;98759.66;6085363;19;20996;-72
2023/12/07 04:55:27;;;;;;;18.42;10.45;;;;;;;0.37;100.00;98761.38;6085217;19;20317;-72
2023/12/07 04:57:28;;;;;;;18.83;10.60;;;;;;;0.37;100.00;98762.16;6086145;19;20427;-71
2023/12/07 04:59:28;;;;;;;17.70;10.00;;;;;;;0.36;100.00;98760.56;6081463;19;19994;-72
2023/12/07 05:01:28;;;;;;;20.15;10.02;;;;;;;0.37;100.00;98769.53;6084661;19;20101;-72
2023/12/07 05:03:29;;;;;;;16.42;8.98;;;;;;;0.38;100.00;98766.50;6083905;19;19998;-72
2023/12/07 05:05:29;;;;;;;19.38;10.55;;;;;;;0.41;100.00;98765.88;6084276;19;19999;-72
2023/12/07 05:07:29;;;;;;;19.42;9.73;;;;;;;0.39;100.00;98757.22;6089919;19;20398;-72
2023/12/07 05:09:30;;;;;;;16.40;9.75;;;;;;;0.38;100.00;98761.06;6089204;19;20757;-71
2023/12/07 05:11:31;;;;;;;18.55;10.52;;;;;;;0.34;100.00;98759.25;6088726;19;20388;-72
2023/12/07 05:13:33;;;;;;;20.50;11.60;;;;;;;0.28;100.00;98759.34;6085655;19;20418;-72
2023/12/07 05:15:34;;;;;;;17.83;10.85;;;;;;;0.26;100.00;98761.59;6088586;19;20066;-72
2023/12/07 05:17:34;;;;;;;19.13;10.25;;;;;;;0.23;100.00;98755.91;6090069;19;20227;-72
2023/12/07 05:19:34;;;;;;;19.02;10.82;;;;;;;0.22;100.00;98765.19;6089544;19;20007;-72
2023/12/07 05:21:35;;;;;;;17.10;9.77;;;;;;;0.18;100.00;98761.47;6089473;19;20019;-72
2023/12/07 05:23:35;;;;;;;19.88;10.40;;;;;;;0.17;100.00;98759.88;6089738;19;20574;-72
2023/12/07 05:25:36;;;;;;;22.98;10.88;;;;;;;0.18;100.00;98753.31;6089558;19;20002;-72
2023/12/07 05:27:37;;;;;;;18.23;10.90;;;;;;;0.16;100.00;98756.31;6085599;19;20479;-72
2023/12/07 05:29:37;;;;;;;20.63;10.90;;;;;;;0.15;100.00;98754.72;6087269;19;20014;-72
2023/12/07 05:31:37;;;;;;;17.83;10.00;;;;;;;0.17;100.00;98762.59;6087976;19;20431;-72
2023/12/07 05:33:38;;;;;;;19.08;10.93;;;;;;;0.15;100.00;98764.78;6087166;19;20440;-72
2023/12/07 05:35:38;;;;;;;19.77;11.13;;;;;;;0.14;100.00;98760.47;6086005;19;20331;-72
2023/12/07 05:37:39;;;;;;;21.75;11.57;;;;;;;0.17;100.00;98754.44;6088511;19;21573;-72
2023/12/07 05:39:39;;;;;;;21.77;11.05;;;;;;;0.13;100.00;98762.38;6086740;19;20062;-72
2023/12/07 05:41:39;;;;;;;21.45;11.68;;;;;;;0.13;100.00;98759.66;6088395;19;20028;-72
2023/12/07 05:43:41;;;;;;;19.02;11.15;;;;;;;0.12;100.00;98768.94;6084607;19;20007;-72
2023/12/07 05:45:42;;;;;;;18.65;10.50;;;;;;;0.12;100.00;98763.50;6084953;19;20011;-72
2023/12/07 05:47:42;;;;;;;20.08;11.73;;;;;;;0.10;100.00;98765.72;6085295;19;20010;-72
2023/12/07 05:49:42;;;;;;;21.65;12.02;;;;;;;0.11;100.00;98763.81;6086984;19;20010;-72
2023/12/07 05:51:43;;;;;;;20.08;10.80;;;;;;;0.10;100.00;98767.63;6097319;19;20017;-71
2023/12/07 05:53:44;;;;;;;16.58;10.15;;;;;;;0.11;100.00;98771.97;6098902;19;20002;-72
2023/12/07 05:55:44;;;;;;;19.02;11.32;;;;;;;0.10;100.00;98762.19;6097323;19;20006;-72
2023/12/07 05:57:46;;;;;;;25.20;13.70;;;;;;;0.12;100.00;98774.38;6096664;19;20502;-72
2023/12/07 05:59:46;;;;;;;22.05;13.77;;;;;;;0.12;100.00;98771.66;6097757;19;20003;-72
2023/12/07 06:01:46;;;;;;;23.83;12.70;;;;;;;0.12;100.00;98762.69;6101566;19;20280;-72
2023/12/07 06:03:47;;;;;;;22.42;12.30;;;;;;;0.12;100.00;98770.84;6103591;19;20340;-72
2023/12/07 06:05:47;;;;;;;20.98;12.90;;;;;;;0.16;100.00;98772.66;6102381;19;20718;-72
2023/12/07 06:07:48;;;;;;;23.02;14.48;;;;;;;0.16;100.00;98759.03;6100616;19;20010;-72
2023/12/07 06:09:48;;;;;;;20.25;12.57;;;;;;;0.18;100.00;98762.28;6102399;19;20019;-72
2023/12/07 06:11:48;;;;;;;25.17;13.50;;;;;;;0.17;100.00;98763.41;6102162;19;20003;-72
2023/12/07 06:13:49;;;;;;;25.85;14.18;;;;;;;0.16;100.00;98763.69;6102470;19;20355;-72
2023/12/07 06:15:49;;;;;;;23.13;13.43;;;;;;;0.17;100.00;98763.41;6102948;19;20033;-72
2023/12/07 06:17:49;;;;;;;21.98;11.98;;;;;;;0.16;100.00;98767.19;6100445;19;20006;-72
2023/12/07 06:19:50;;;;;;;22.55;11.73;;;;;;;0.16;100.00;98764.47;6102213;19;20017;-72
2023/12/07 06:21:50;;;;;;;25.00;13.32;;;;;;;0.18;100.00;98772.38;6102966;19;20007;-72
2023/12/07 06:23:50;;;;;;;24.63;12.40;;;;;;;0.16;100.00;98769.13;6104149;19;20006;-72
2023/12/07 06:25:51;;;;;;;24.98;11.93;;;;;;;0.14;100.00;98766.72;6100217;19;20003;-72
2023/12/07 06:27:51;;;;;;;21.05;10.98;;;;;;;0.14;100.00;98771.34;6102406;19;20473;-72
2023/12/07 06:29:51;;;;;;;18.42;9.95;;;;;;;0.15;100.00;98775.69;6101417;19;20035;-72
2023/12/07 06:31:52;;;;;;;15.68;9.68;;;;;;;0.13;100.00;98775.97;6101976;19;20040;-72
2023/12/07 06:33:52;;;;;;;19.60;10.65;;;;;;;0.13;100.00;98780.63;6100832;19;19999;-72
2023/12/07 06:35:52;;;;;;;21.58;11.32;;;;;;;0.17;100.00;98778.94;6100046;19;19998;-72
2023/12/07 06:37:53;;;;;;;15.20;9.15;;;;;;;0.17;100.00;98787.88;6090491;19;20485;-72
2023/12/07 06:39:53;;;;;;;17.20;10.25;;;;;;;0.18;100.00;98794.94;6096858;19;19999;-72
2023/12/07 06:41:55;;;;;;;17.75;10.73;;;;;;;0.17;100.00;98787.09;6099736;19;20074;-72
2023/12/07 06:43:55;;;;;;;22.43;11.13;;;;;;;0.19;100.00;98804.72;6098721;19;20354;-72
2023/12/07 06:45:56;;;;;;;16.33;9.93;;;;;;;0.20;100.00;98809.03;6098385;19;20345;-72
2023/12/07 06:47:56;;;;;;;17.88;9.43;;;;;;;0.20;100.00;98805.53;6099155;19;20010;-72
2023/12/07 06:49:57;;;;;;;16.77;9.57;;;;;;;0.21;100.00;98807.94;6097692;19;20017;-72
2023/12/07 06:51:57;;;;;;;16.98;10.52;;;;;;;0.20;100.00;98805.53;6099741;19;20454;-72
2023/12/07 06:53:57;;;;;;;17.17;9.73;;;;;;;0.23;100.00;98802.19;6098316;19;20362;-72
2023/12/07 06:55:58;;;;;;;15.38;9.32;;;;;;;0.24;100.00;98818.19;6101327;19;20498;-72
2023/12/07 06:57:58;;;;;;;21.08;10.02;;;;;;;0.25;100.00;98814.41;6102012;19;20011;-72
2023/12/07 06:59:59;;;;;;;16.42;9.40;;;;;;;0.33;100.00;98812.06;6099479;19;20002;-72
2023/12/07 07:01:59;;;;;;;20.15;10.32;;;;;;;0.31;100.00;98820.53;6101407;19;20417;-72
2023/12/07 07:04:00;;;;;;;18.63;9.63;;;;;;;0.31;100.00;98814.28;6101230;19;19999;-72
2023/12/07 07:06:00;;;;;;;16.15;8.95;;;;;;;0.32;100.00;98826.78;6100601;19;20017;-72
2023/12/07 07:08:00;;;;;;;22.23;9.95;;;;;;;0.33;100.00;98812.06;6101205;19;20083;-72
2023/12/07 07:10:01;;;;;;;19.30;10.27;;;;;;;0.31;100.00;98825.97;6100144;19;20029;-72
2023/12/07 07:12:01;;;;;;;18.00;10.50;;;;;;;0.34;100.00;98825.38;6100253;19;20010;-71
2023/12/07 07:14:02;;;;;;;16.85;9.98;;;;;;;0.37;100.00;98821.25;6100056;19;19995;-72
2023/12/07 07:16:02;;;;;;;16.77;9.45;;;;;;;0.35;100.00;98832.44;6101449;19;20026;-72
2023/12/07 07:18:03;;;;;;;15.90;9.40;;;;;;;0.35;100.00;98835.16;6101322;19;20006;-72
2023/12/07 07:20:04;;;;;;;18.77;10.38;;;;;;;0.32;100.00;98824.88;6100372;19;20066;-72
2023/12/07 07:22:04;;;;;;;18.67;10.52;;;;;;;0.30;100.00;98832.53;6101920;19;20003;-72
2023/12/07 07:24:05;;;;;;;23.88;10.30;;;;;;;0.30;100.00;98835.25;6101447;19;20019;-72
2023/12/07 07:26:05;;;;;;;20.58;10.30;;;;;;;0.32;100.00;98829.50;6101065;19;20738;-72
2023/12/07 07:28:06;;;;;;;17.17;9.85;;;;;;;0.32;100.00;98837.66;6101336;19;20381;-72
2023/12/07 07:30:08;;;;;;;16.55;9.95;;;;;;;0.30;100.00;98843.41;6099038;19;20232;-72
2023/12/07 07:32:08;;;;;;;17.00;10.02;;;;;;;0.31;100.00;98841.50;6101376;19;20006;-72
2023/12/07 07:34:08;;;;;;;16.88;9.50;;;;;;;0.30;100.00;98843.41;6098030;19;20020;-72
2023/12/07 07:36:09;;;;;;;16.77;9.30;;;;;;;0.30;100.00;98848.84;6099706;19;20034;-72
2023/12/07 07:38:10;;;;;;;14.02;8.77;;;;;;;0.31;100.00;98844.22;6099880;19;20443;-72
2023/12/07 07:40:11;;;;;;;16.48;9.85;;;;;;;0.30;100.00;98853.50;6099197;19;20026;-72
2023/12/07 07:42:11;;;;;;;17.83;8.90;;;;;;;0.31;100.00;98846.94;6100270;19;20014;-72
2023/12/07 07:44:12;;;;;;;15.82;8.98;;;;;;;0.31;100.00;98853.19;6099496;19;20447;-72
2023/12/07 07:46:12;;;;;;;14.95;8.45;;;;;;;0.32;100.00;98848.56;6099777;19;20603;-72
2023/12/07 07:48:12;;;;;;;15.82;9.07;;;;;;;0.31;100.00;98852.38;6100175;19;20018;-72
2023/12/07 07:50:13;;;;;;;19.00;9.30;;;;;;;0.31;100.00;98850.47;6099443;19;19999;-72
2023/12/07 07:52:13;;;;;;;14.30;8.70;;;;;;;0.34;100.00;98849.88;6099946;19;20490;-72
2023/12/07 07:54:13;;;;;;;15.25;8.68;;;;;;;0.36;100.00;98849.56;6100416;19;20292;-72
2023/12/07 07:56:14;;;;;;;14.73;9.07;;;;;;;0.36;100.00;98846.84;6101274;19;20381;-72
2023/12/07 07:58:14;;;;;;;18.05;8.57;;;;;;;0.41;100.00;98852.19;6100376;19;20003;-72
2023/12/07 08:00:15;;;;;;;16.63;9.60;;;;;;;0.41;100.00;98847.53;6099310;19;20077;-72
2023/12/07 08:02:15;;;;;;;17.27;10.32;;;;;;;0.39;100.00;98852.50;6099964;19;19995;-72
2023/12/07 08:04:16;;;;;;;16.52;9.60;;;;;;;0.35;100.00;98837.88;6099869;19;20018;-72
2023/12/07 08:06:16;;;;;;;19.05;10.30;;;;;;;0.40;100.00;98850.56;6100961;19;20466;-72
2023/12/07 08:08:16;;;;;;;13.85;9.35;;;;;;;0.39;100.00;98849.78;6099934;19;20002;-72
2023/12/07 08:10:17;;;;;;;18.38;9.85;;;;;;;0.43;100.00;98848.06;6100239;19;20002;-72
2023/12/07 08:12:17;;;;;;;17.00;9.57;;;;;;;0.46;100.00;98839.28;6099572;19;19999;-72
2023/12/07 08:14:17;;;;;;;14.30;8.38;;;;;;;0.46;100.00;98852.91;6099902;19;20003;-72
2023/12/07 08:16:19;;;;;;;18.27;10.07;;;;;;;0.45;100.00;98855.94;6098771;19;20019;-72
2023/12/07 08:18:19;;;;;;;17.00;9.73;;;;;;;0.45;100.00;98858.66;6100225;19;20003;-72
2023/12/07 08:20:19;;;;;;;16.42;9.80;;;;;;;0.45;100.00;98866.81;6099625;19;20005;-72
2023/12/07 08:22:20;;;;;;;19.05;10.20;;;;;;;0.47;100.00;98870.84;6099427;19;19999;-72
2023/12/07 08:24:20;;;;;;;18.23;10.65;;;;;;;0.46;100.00;98860.25;6100374;19;20003;-72
2023/12/07 08:26:21;;;;;;;26.65;11.00;;;;;;;0.49;100.00;98867.81;6099671;19;20492;-72
2023/12/07 08:28:21;;;;;;;19.52;10.95;;;;;;;0.49;100.00;98865.91;6100527;19;20030;-72
2023/12/07 08:30:22;;;;;;;23.05;10.45;;;;;;;0.51;100.00;98869.16;6098713;19;20014;-72
2023/12/07 08:32:25;;;;;;;19.80;9.82;;;;;;;0.49;100.00;98870.53;6099713;19;19998;-72
2023/12/07 08:34:26;;;;;;;14.18;8.98;;;;;;;0.51;100.00;98868.34;6099788;19;20424;-72
2023/12/07 08:36:27;;;;;;;17.52;9.63;;;;;;;0.48;100.00;98875.19;6099039;19;20446;-72
2023/12/07 08:38:27;;;;;;;15.95;9.88;;;;;;;0.53;100.00;98868.84;6099846;19;20573;-72
2023/12/07 08:40:27;;;;;;;13.77;9.10;;;;;;;0.52;100.00;98867.22;6098316;19;20066;-72
2023/12/07 08:42:28;;;;;;;19.60;11.00;;;;;;;0.55;100.00;98883.75;6104051;19;20351;-72
2023/12/07 08:44:28;;;;;;;17.08;9.75;;;;;;;0.55;100.00;98881.03;6105816;19;20010;-72
2023/12/07 08:46:28;;;;;;;18.20;9.73;;;;;;;0.59;100.00;98877.72;6105072;19;20471;-72
2023/12/07 08:48:29;;;;;;;16.27;9.80;;;;;;;0.57;100.00;98872.56;6105463;19;20022;-72
2023/12/07 08:50:29;;;;;;;13.88;9.30;;;;;;;0.59;100.00;98877.72;6090211;19;20495;-72
2023/12/07 08:52:30;;;;;;;20.63;9.45;;;;;;;0.62;100.00;98868.94;6105883;19;20002;-72
2023/12/07 08:54:30;;;;;;;16.38;9.07;;;;;;;0.70;100.00;98871.75;6105008;19;20006;-72
2023/12/07 08:56:30;;;;;;;13.15;8.45;;;;;;;0.68;100.00;98873.19;6105833;19;20347;-72
2023/12/07 08:58:31;;;;;;;19.35;8.77;;;;;;;0.72;100.00;98866.00;6101399;19;20462;-72
2023/12/07 09:00:32;;;;;;;15.43;8.77;;;;;;;0.70;100.00;98877.22;6103981;19;20038;-72
2023/12/07 09:02:32;;;;;;;18.65;9.13;;;;;;;0.68;100.00;98873.19;6105392;19;20074;-72
2023/12/07 09:04:33;;;;;;;13.20;8.10;;;;;;;0.73;100.00;98868.41;6105255;19;21013;-72
2023/12/07 09:06:33;;;;;;;15.23;8.82;;;;;;;0.72;100.00;98874.16;6104131;19;20003;-72
2023/12/07 09:08:33;;;;;;;12.82;8.18;;;;;;;0.73;100.00;98873.06;6102891;19;20007;-71
2023/12/07 09:10:34;;;;;;;18.48;8.30;;;;;;;0.73;100.00;98871.13;6105920;19;20010;-71
2023/12/07 09:12:35;;;;;;;16.15;8.48;;;;;;;0.70;100.00;98871.75;6105703;19;20011;-72
2023/12/07 09:14:36;;;;;;;15.75;8.50;;;;;;;0.72;100.00;98874.97;6103998;19;20007;-72
2023/12/07 09:16:43;;;;;;;14.85;8.30;;;;;;;0.72;100.00;98874.97;6103626;19;20018;-72
2023/12/07 09:18:46;;;;;;;15.88;8.80;;;;;;;0.79;100.00;98878.09;6101255;19;20014;-71
2023/12/07 09:20:46;;;;;;;14.63;8.52;;;;;;;0.79;100.00;98875.38;6105234;19;20002;-71